Aérodrome :
LOGIN :

S'inscrire | Disclaimer

   EN    FR    IT 

 










Légende :    VFR   VFR Marginal   IFR   IFR Intensif   IFR Très Intensif
Visi : 
Plafond : 
>= 8 km
>= 3000ft
5 à 8 km
1000 à 3000 ft
1500m à 5 km
500 à 1000 ft
800 à 1500m
200 à 500 ft
< 800m
< 200 ft
Symboles :   Orages  Brouillard  Fortes neiges  Fortes précipitations  Vent > 20 kt
SIGMETs :   Divers  Orages  Givrage  Turbulence  Onde Orograph.  Cendres Volcan.






- Altitude de l'aérodrome : 125 ft
- Code IATA : MGL


EDLN - Mönchengladbach

DERNIER METAR :
  • 230150Z AUTO 02002KT 9999 // OVC100/// 11/10 Q1020

METARs EXPIRÉS :
  • 230120Z AUTO 04003KT 9999 // OVC098/// 11/11 Q1020
  • 230050Z AUTO 00000KT 8000 // SCT084/// OVC098/// 10/10 Q1021
  • 230020Z AUTO VRB02KT 5000 // BKN098/// OVC120/// 10/10 Q1021
  • 222350Z AUTO 00000KT 6000 // BKN090/// 10/10 Q1022
  • 222320Z AUTO 00000KT 6000 // FEW077/// OVC095/// 10/10 Q1022
  • 222250Z AUTO 00000KT 6000 // OVC100/// 10/10 Q1022

TAF TAF EDLN
Valide du 22 à 18h jusqu'au 23 à 03h UTC


221700Z 2218/2303 VRB02KT 9999 FEW040
BECMG 2222/2301 4000 BR



MET'MAP, la Météo Aéronautique d'un coup d'oeil ! - Copyright ORBIFLY Décembre 2007 - Disclaimer

ORBIFLY MET'MAP TEAM :

Programmation & Développement : Alexandra Zaïnal
Conception & Développement : Baudouin d'Aumeries
Co-Programmation & Développement : Marc-Olivier Méhu
Soutien technique & logistique : Manuel Goepfert

Contact : metmap@orbifly.com




SOURCES & CREDITS :

   NOAA